Macks Creek, Missouri
Current Conditions -  °F | °C
As of 1:55 AM on Friday 24 Oct 2014 (Local Time) from KH21 Reporting Station
Overcast Overcast  
Wind Chill: 15°   Ceiling: 1000
Heat Index: 15°   Visibility: 10mi
Dew Point: 13°   Wind: 6mph
Humidity: 88%   Direction: 230°SW
Pressure: 30.11"   Gusts: NA
Location:  37.97°N, 92.97°W
Report Text: KH21 240655Z AUTO 23005KT 10SM OVC010 15/13 A3011 RMK AO2
Loading
Personal Weather Stations






























Interactive Weather Map
Tropical Storm Tracking
New forecast layout! Learn more

10-Day Weather Forecast

Advertisements
Track Severe Weather on mobile